sensor_id;sensor_type;location;lat;lon;timestamp;P1;durP1;ratioP1;P2;durP2;ratioP2
52610;SDS011;38727;40.130;18.292;2024-02-26T00:01:02;12.48;;;3.78;;
52610;SDS011;38727;40.130;18.292;2024-02-26T00:03:32;8.57;;;3.03;;
52610;SDS011;38727;40.130;18.292;2024-02-26T00:06:06;21.85;;;4.00;;
52610;SDS011;38727;40.130;18.292;2024-02-26T00:11:09;15.02;;;3.55;;
52610;SDS011;38727;40.130;18.292;2024-02-26T00:13:39;14.48;;;3.72;;
52610;SDS011;38727;40.130;18.292;2024-02-26T00:16:12;13.93;;;3.87;;
52610;SDS011;38727;40.130;18.292;2024-02-26T00:18:43;10.40;;;3.22;;
52610;SDS011;38727;40.130;18.292;2024-02-26T00:21:15;17.65;;;4.07;;
52610;SDS011;38727;40.130;18.292;2024-02-26T00:23:49;13.55;;;3.78;;
52610;SDS011;38727;40.130;18.292;2024-02-26T00:26:21;13.35;;;3.28;;
52610;SDS011;38727;40.130;18.292;2024-02-26T00:28:53;11.20;;;3.45;;
52610;SDS011;38727;40.130;18.292;2024-02-26T00:31:24;12.02;;;3.78;;
52610;SDS011;38727;40.130;18.292;2024-02-26T00:33:58;13.60;;;3.78;;
52610;SDS011;38727;40.130;18.292;2024-02-26T00:36:31;9.38;;;3.38;;
52610;SDS011;38727;40.130;18.292;2024-02-26T00:39:02;19.10;;;3.70;;
52610;SDS011;38727;40.130;18.292;2024-02-26T00:41:37;14.60;;;4.65;;
52610;SDS011;38727;40.130;18.292;2024-02-26T00:44:09;12.25;;;4.40;;
52610;SDS011;38727;40.130;18.292;2024-02-26T00:46:40;8.82;;;4.00;;
52610;SDS011;38727;40.130;18.292;2024-02-26T00:49:11;14.57;;;3.85;;
52610;SDS011;38727;40.130;18.292;2024-02-26T00:51:43;9.30;;;4.40;;
52610;SDS011;38727;40.130;18.292;2024-02-26T00:54:14;14.93;;;4.40;;
52610;SDS011;38727;40.130;18.292;2024-02-26T00:56:47;9.82;;;3.60;;
52610;SDS011;38727;40.130;18.292;2024-02-26T00:59:17;11.02;;;4.97;;
52610;SDS011;38727;40.130;18.292;2024-02-26T01:01:48;11.50;;;3.50;;
52610;SDS011;38727;40.130;18.292;2024-02-26T01:04:20;15.27;;;3.80;;
52610;SDS011;38727;40.130;18.292;2024-02-26T01:06:50;11.13;;;4.10;;
52610;SDS011;38727;40.130;18.292;2024-02-26T01:09:22;12.55;;;4.43;;
52610;SDS011;38727;40.130;18.292;2024-02-26T01:11:54;16.45;;;4.28;;
52610;SDS011;38727;40.130;18.292;2024-02-26T01:14:25;9.70;;;4.88;;
52610;SDS011;38727;40.130;18.292;2024-02-26T01:16:56;10.88;;;4.55;;
52610;SDS011;38727;40.130;18.292;2024-02-26T01:19:27;16.73;;;4.25;;
52610;SDS011;38727;40.130;18.292;2024-02-26T01:21:59;11.05;;;4.45;;
52610;SDS011;38727;40.130;18.292;2024-02-26T01:24:30;8.77;;;4.75;;
52610;SDS011;38727;40.130;18.292;2024-02-26T01:27:02;9.80;;;3.83;;
52610;SDS011;38727;40.130;18.292;2024-02-26T01:29:33;5.97;;;3.63;;
52610;SDS011;38727;40.130;18.292;2024-02-26T01:32:04;11.13;;;4.63;;
52610;SDS011;38727;40.130;18.292;2024-02-26T01:34:34;12.77;;;4.22;;
52610;SDS011;38727;40.130;18.292;2024-02-26T01:37:06;11.32;;;4.82;;
52610;SDS011;38727;40.130;18.292;2024-02-26T01:39:37;9.40;;;4.50;;
52610;SDS011;38727;40.130;18.292;2024-02-26T01:42:11;14.30;;;4.47;;
52610;SDS011;38727;40.130;18.292;2024-02-26T01:44:42;9.00;;;4.45;;
52610;SDS011;38727;40.130;18.292;2024-02-26T01:47:16;12.88;;;4.80;;
52610;SDS011;38727;40.130;18.292;2024-02-26T01:49:47;8.25;;;4.57;;
52610;SDS011;38727;40.130;18.292;2024-02-26T01:52:18;8.00;;;4.70;;
52610;SDS011;38727;40.130;18.292;2024-02-26T01:54:50;11.10;;;4.00;;
52610;SDS011;38727;40.130;18.292;2024-02-26T01:57:25;10.80;;;5.28;;
52610;SDS011;38727;40.130;18.292;2024-02-26T01:59:57;8.80;;;5.07;;
52610;SDS011;38727;40.130;18.292;2024-02-26T02:02:32;10.85;;;4.05;;
52610;SDS011;38727;40.130;18.292;2024-02-26T02:05:04;11.18;;;4.10;;
52610;SDS011;38727;40.130;18.292;2024-02-26T02:07:35;10.00;;;4.45;;
52610;SDS011;38727;40.130;18.292;2024-02-26T02:10:07;7.85;;;3.92;;
52610;SDS011;38727;40.130;18.292;2024-02-26T02:12:39;10.55;;;5.07;;
52610;SDS011;38727;40.130;18.292;2024-02-26T02:15:12;10.10;;;4.20;;
52610;SDS011;38727;40.130;18.292;2024-02-26T02:17:43;10.07;;;3.53;;
52610;SDS011;38727;40.130;18.292;2024-02-26T02:22:55;10.90;;;4.53;;
52610;SDS011;38727;40.130;18.292;2024-02-26T02:25:25;10.52;;;4.40;;
52610;SDS011;38727;40.130;18.292;2024-02-26T02:27:55;11.35;;;4.63;;
52610;SDS011;38727;40.130;18.292;2024-02-26T02:30:28;7.22;;;4.53;;
52610;SDS011;38727;40.130;18.292;2024-02-26T02:33:00;9.70;;;4.57;;
52610;SDS011;38727;40.130;18.292;2024-02-26T02:35:34;9.90;;;4.50;;
52610;SDS011;38727;40.130;18.292;2024-02-26T02:38:04;10.15;;;4.68;;
52610;SDS011;38727;40.130;18.292;2024-02-26T02:40:35;11.10;;;5.00;;
52610;SDS011;38727;40.130;18.292;2024-02-26T02:43:05;11.52;;;5.97;;
52610;SDS011;38727;40.130;18.292;2024-02-26T02:45:37;8.18;;;4.50;;
52610;SDS011;38727;40.130;18.292;2024-02-26T02:48:07;12.80;;;4.80;;
52610;SDS011;38727;40.130;18.292;2024-02-26T02:50:40;13.85;;;5.05;;
52610;SDS011;38727;40.130;18.292;2024-02-26T02:53:12;12.82;;;4.72;;
52610;SDS011;38727;40.130;18.292;2024-02-26T02:55:44;11.45;;;4.82;;
52610;SDS011;38727;40.130;18.292;2024-02-26T02:58:15;12.02;;;5.43;;
52610;SDS011;38727;40.130;18.292;2024-02-26T03:00:45;17.08;;;5.57;;
52610;SDS011;38727;40.130;18.292;2024-02-26T03:03:17;11.73;;;5.57;;
52610;SDS011;38727;40.130;18.292;2024-02-26T03:05:51;13.90;;;4.95;;
52610;SDS011;38727;40.130;18.292;2024-02-26T03:08:22;12.23;;;5.60;;
52610;SDS011;38727;40.130;18.292;2024-02-26T03:10:54;14.10;;;5.68;;
52610;SDS011;38727;40.130;18.292;2024-02-26T03:13:30;13.48;;;5.80;;
52610;SDS011;38727;40.130;18.292;2024-02-26T03:16:04;15.70;;;7.03;;
52610;SDS011;38727;40.130;18.292;2024-02-26T03:18:35;14.73;;;6.05;;
52610;SDS011;38727;40.130;18.292;2024-02-26T03:21:10;9.80;;;5.30;;
52610;SDS011;38727;40.130;18.292;2024-02-26T03:23:42;17.67;;;6.03;;
52610;SDS011;38727;40.130;18.292;2024-02-26T03:26:12;10.57;;;5.32;;
52610;SDS011;38727;40.130;18.292;2024-02-26T03:28:44;17.08;;;6.50;;
52610;SDS011;38727;40.130;18.292;2024-02-26T03:31:15;16.85;;;5.50;;
52610;SDS011;38727;40.130;18.292;2024-02-26T03:33:46;15.60;;;6.22;;
52610;SDS011;38727;40.130;18.292;2024-02-26T03:36:19;21.80;;;6.10;;
52610;SDS011;38727;40.130;18.292;2024-02-26T03:38:51;15.73;;;4.90;;
52610;SDS011;38727;40.130;18.292;2024-02-26T03:41:23;13.93;;;4.70;;
52610;SDS011;38727;40.130;18.292;2024-02-26T03:43:55;13.15;;;4.72;;
52610;SDS011;38727;40.130;18.292;2024-02-26T03:46:25;20.00;;;5.38;;
52610;SDS011;38727;40.130;18.292;2024-02-26T03:48:56;11.02;;;4.18;;
52610;SDS011;38727;40.130;18.292;2024-02-26T03:51:30;13.52;;;4.80;;
52610;SDS011;38727;40.130;18.292;2024-02-26T03:54:02;12.43;;;4.50;;
52610;SDS011;38727;40.130;18.292;2024-02-26T03:56:34;12.30;;;4.10;;
52610;SDS011;38727;40.130;18.292;2024-02-26T03:59:08;10.25;;;3.78;;
52610;SDS011;38727;40.130;18.292;2024-02-26T04:01:39;10.02;;;3.97;;
52610;SDS011;38727;40.130;18.292;2024-02-26T04:04:14;15.90;;;4.35;;
52610;SDS011;38727;40.130;18.292;2024-02-26T04:06:47;7.28;;;3.50;;
52610;SDS011;38727;40.130;18.292;2024-02-26T04:09:19;10.77;;;3.50;;
52610;SDS011;38727;40.130;18.292;2024-02-26T04:11:49;13.38;;;3.60;;
52610;SDS011;38727;40.130;18.292;2024-02-26T04:14:21;10.80;;;3.17;;
52610;SDS011;38727;40.130;18.292;2024-02-26T04:16:52;12.77;;;3.13;;
52610;SDS011;38727;40.130;18.292;2024-02-26T04:19:23;11.20;;;2.80;;
52610;SDS011;38727;40.130;18.292;2024-02-26T04:22:16;11.73;;;3.15;;
52610;SDS011;38727;40.130;18.292;2024-02-26T04:24:48;7.88;;;3.38;;
52610;SDS011;38727;40.130;18.292;2024-02-26T04:29:51;9.85;;;4.15;;
52610;SDS011;38727;40.130;18.292;2024-02-26T04:32:21;12.30;;;3.47;;
52610;SDS011;38727;40.130;18.292;2024-02-26T04:34:52;10.10;;;2.90;;
52610;SDS011;38727;40.130;18.292;2024-02-26T04:37:24;9.95;;;2.95;;
52610;SDS011;38727;40.130;18.292;2024-02-26T04:39:58;7.43;;;3.53;;
52610;SDS011;38727;40.130;18.292;2024-02-26T04:42:29;7.07;;;2.92;;
52610;SDS011;38727;40.130;18.292;2024-02-26T04:45:01;11.73;;;3.15;;
52610;SDS011;38727;40.130;18.292;2024-02-26T04:47:32;8.35;;;2.95;;
52610;SDS011;38727;40.130;18.292;2024-02-26T04:50:02;14.88;;;3.10;;
52610;SDS011;38727;40.130;18.292;2024-02-26T04:52:34;9.90;;;2.70;;
52610;SDS011;38727;40.130;18.292;2024-02-26T04:55:06;14.73;;;3.17;;
52610;SDS011;38727;40.130;18.292;2024-02-26T04:57:38;14.85;;;4.53;;
52610;SDS011;38727;40.130;18.292;2024-02-26T05:00:10;11.80;;;4.78;;
52610;SDS011;38727;40.130;18.292;2024-02-26T05:02:42;10.25;;;3.13;;
52610;SDS011;38727;40.130;18.292;2024-02-26T05:05:13;9.43;;;3.45;;
52610;SDS011;38727;40.130;18.292;2024-02-26T05:07:45;12.40;;;2.70;;
52610;SDS011;38727;40.130;18.292;2024-02-26T05:10:16;12.07;;;2.85;;
52610;SDS011;38727;40.130;18.292;2024-02-26T05:12:47;7.53;;;2.42;;
52610;SDS011;38727;40.130;18.292;2024-02-26T05:15:18;11.68;;;3.10;;
52610;SDS011;38727;40.130;18.292;2024-02-26T05:17:49;9.75;;;2.72;;
52610;SDS011;38727;40.130;18.292;2024-02-26T05:20:21;8.00;;;3.17;;
52610;SDS011;38727;40.130;18.292;2024-02-26T05:22:54;12.23;;;2.65;;
52610;SDS011;38727;40.130;18.292;2024-02-26T05:25:27;7.22;;;2.78;;
52610;SDS011;38727;40.130;18.292;2024-02-26T05:27:58;14.45;;;3.03;;
52610;SDS011;38727;40.130;18.292;2024-02-26T05:30:32;9.13;;;2.92;;
52610;SDS011;38727;40.130;18.292;2024-02-26T05:33:05;8.07;;;2.67;;
52610;SDS011;38727;40.130;18.292;2024-02-26T05:35:36;14.32;;;3.30;;
52610;SDS011;38727;40.130;18.292;2024-02-26T05:38:12;8.15;;;2.92;;
52610;SDS011;38727;40.130;18.292;2024-02-26T05:40:42;10.63;;;2.90;;
52610;SDS011;38727;40.130;18.292;2024-02-26T05:43:14;9.25;;;2.72;;
52610;SDS011;38727;40.130;18.292;2024-02-26T05:45:45;7.22;;;3.20;;
52610;SDS011;38727;40.130;18.292;2024-02-26T05:48:15;7.63;;;2.63;;
52610;SDS011;38727;40.130;18.292;2024-02-26T05:50:46;11.07;;;3.83;;
52610;SDS011;38727;40.130;18.292;2024-02-26T05:53:20;8.75;;;3.35;;
52610;SDS011;38727;40.130;18.292;2024-02-26T05:55:51;12.20;;;3.15;;
52610;SDS011;38727;40.130;18.292;2024-02-26T05:58:21;12.98;;;3.95;;
52610;SDS011;38727;40.130;18.292;2024-02-26T06:01:11;8.60;;;3.58;;
52610;SDS011;38727;40.130;18.292;2024-02-26T06:03:42;13.10;;;3.63;;
52610;SDS011;38727;40.130;18.292;2024-02-26T06:06:13;7.30;;;3.65;;
52610;SDS011;38727;40.130;18.292;2024-02-26T06:08:45;11.35;;;3.28;;
52610;SDS011;38727;40.130;18.292;2024-02-26T06:11:16;11.93;;;3.88;;
52610;SDS011;38727;40.130;18.292;2024-02-26T06:13:47;13.25;;;3.92;;
52610;SDS011;38727;40.130;18.292;2024-02-26T06:16:17;9.65;;;3.97;;
52610;SDS011;38727;40.130;18.292;2024-02-26T06:18:49;14.73;;;4.70;;
52610;SDS011;38727;40.130;18.292;2024-02-26T06:21:20;10.35;;;5.00;;
52610;SDS011;38727;40.130;18.292;2024-02-26T06:23:52;14.90;;;5.75;;
52610;SDS011;38727;40.130;18.292;2024-02-26T06:26:24;13.35;;;5.15;;
52610;SDS011;38727;40.130;18.292;2024-02-26T06:28:57;16.80;;;4.95;;
52610;SDS011;38727;40.130;18.292;2024-02-26T06:31:28;11.80;;;5.05;;
52610;SDS011;38727;40.130;18.292;2024-02-26T06:34:00;16.23;;;4.85;;
52610;SDS011;38727;40.130;18.292;2024-02-26T06:36:31;12.10;;;4.10;;
52610;SDS011;38727;40.130;18.292;2024-02-26T06:39:04;10.82;;;4.43;;
52610;SDS011;38727;40.130;18.292;2024-02-26T06:41:36;9.88;;;3.95;;
52610;SDS011;38727;40.130;18.292;2024-02-26T06:44:07;13.98;;;6.38;;
52610;SDS011;38727;40.130;18.292;2024-02-26T06:46:39;12.52;;;5.28;;
52610;SDS011;38727;40.130;18.292;2024-02-26T06:49:11;11.40;;;4.10;;
52610;SDS011;38727;40.130;18.292;2024-02-26T06:51:42;12.05;;;3.97;;
52610;SDS011;38727;40.130;18.292;2024-02-26T06:54:15;8.40;;;3.17;;
52610;SDS011;38727;40.130;18.292;2024-02-26T06:56:46;7.78;;;3.42;;
52610;SDS011;38727;40.130;18.292;2024-02-26T06:59:18;10.57;;;3.25;;
52610;SDS011;38727;40.130;18.292;2024-02-26T07:01:53;9.20;;;2.83;;
52610;SDS011;38727;40.130;18.292;2024-02-26T07:04:24;7.05;;;2.42;;
52610;SDS011;38727;40.130;18.292;2024-02-26T07:06:56;10.07;;;2.78;;
52610;SDS011;38727;40.130;18.292;2024-02-26T07:09:30;5.28;;;2.90;;
52610;SDS011;38727;40.130;18.292;2024-02-26T07:12:02;8.93;;;3.30;;
52610;SDS011;38727;40.130;18.292;2024-02-26T07:14:32;7.57;;;2.38;;
52610;SDS011;38727;40.130;18.292;2024-02-26T07:17:06;10.13;;;2.78;;
52610;SDS011;38727;40.130;18.292;2024-02-26T07:19:40;10.13;;;3.53;;
52610;SDS011;38727;40.130;18.292;2024-02-26T07:22:12;8.70;;;2.33;;
52610;SDS011;38727;40.130;18.292;2024-02-26T07:24:47;8.27;;;2.55;;
52610;SDS011;38727;40.130;18.292;2024-02-26T07:27:25;5.32;;;1.90;;
52610;SDS011;38727;40.130;18.292;2024-02-26T07:30:07;9.30;;;2.45;;
52610;SDS011;38727;40.130;18.292;2024-02-26T07:32:42;7.22;;;2.22;;
52610;SDS011;38727;40.130;18.292;2024-02-26T07:35:13;6.85;;;2.03;;
52610;SDS011;38727;40.130;18.292;2024-02-26T07:37:47;6.05;;;2.65;;
52610;SDS011;38727;40.130;18.292;2024-02-26T07:40:21;4.53;;;1.58;;
52610;SDS011;38727;40.130;18.292;2024-02-26T07:42:59;7.68;;;2.20;;
52610;SDS011;38727;40.130;18.292;2024-02-26T07:45:33;8.18;;;2.20;;
52610;SDS011;38727;40.130;18.292;2024-02-26T07:48:04;5.30;;;2.10;;
52610;SDS011;38727;40.130;18.292;2024-02-26T07:50:35;5.55;;;1.70;;
52610;SDS011;38727;40.130;18.292;2024-02-26T07:53:16;7.75;;;2.35;;
52610;SDS011;38727;40.130;18.292;2024-02-26T07:55:49;4.60;;;1.83;;
52610;SDS011;38727;40.130;18.292;2024-02-26T07:58:22;7.03;;;1.90;;
52610;SDS011;38727;40.130;18.292;2024-02-26T08:00:53;7.65;;;1.92;;
52610;SDS011;38727;40.130;18.292;2024-02-26T08:03:25;8.35;;;2.22;;
52610;SDS011;38727;40.130;18.292;2024-02-26T08:05:58;9.60;;;1.98;;
52610;SDS011;38727;40.130;18.292;2024-02-26T08:08:31;3.28;;;1.42;;
52610;SDS011;38727;40.130;18.292;2024-02-26T08:13:55;4.75;;;1.10;;
52610;SDS011;38727;40.130;18.292;2024-02-26T08:16:25;5.18;;;1.95;;
52610;SDS011;38727;40.130;18.292;2024-02-26T08:19:00;8.85;;;2.25;;
52610;SDS011;38727;40.130;18.292;2024-02-26T08:21:30;7.85;;;2.05;;
52610;SDS011;38727;40.130;18.292;2024-02-26T08:24:10;7.38;;;1.80;;
52610;SDS011;38727;40.130;18.292;2024-02-26T08:26:44;8.93;;;2.65;;
52610;SDS011;38727;40.130;18.292;2024-02-26T08:29:14;5.78;;;1.60;;
52610;SDS011;38727;40.130;18.292;2024-02-26T08:31:46;7.70;;;1.33;;
52610;SDS011;38727;40.130;18.292;2024-02-26T08:36:50;3.97;;;1.50;;
52610;SDS011;38727;40.130;18.292;2024-02-26T08:39:22;3.17;;;1.55;;
52610;SDS011;38727;40.130;18.292;2024-02-26T08:41:56;9.75;;;1.83;;
52610;SDS011;38727;40.130;18.292;2024-02-26T08:44:27;8.23;;;1.42;;
52610;SDS011;38727;40.130;18.292;2024-02-26T08:46:58;3.50;;;1.10;;
52610;SDS011;38727;40.130;18.292;2024-02-26T08:49:29;4.90;;;1.98;;
52610;SDS011;38727;40.130;18.292;2024-02-26T08:52:00;9.98;;;3.03;;
52610;SDS011;38727;40.130;18.292;2024-02-26T08:54:31;5.22;;;1.80;;
52610;SDS011;38727;40.130;18.292;2024-02-26T08:57:08;5.70;;;1.38;;
52610;SDS011;38727;40.130;18.292;2024-02-26T08:59:39;7.30;;;1.67;;
52610;SDS011;38727;40.130;18.292;2024-02-26T09:02:14;2.75;;;1.08;;
52610;SDS011;38727;40.130;18.292;2024-02-26T09:04:45;6.43;;;1.25;;
52610;SDS011;38727;40.130;18.292;2024-02-26T09:07:19;4.93;;;1.33;;
52610;SDS011;38727;40.130;18.292;2024-02-26T09:09:50;6.47;;;1.30;;
52610;SDS011;38727;40.130;18.292;2024-02-26T09:12:30;4.38;;;1.10;;
52610;SDS011;38727;40.130;18.292;2024-02-26T09:15:02;3.43;;;1.00;;
52610;SDS011;38727;40.130;18.292;2024-02-26T09:17:34;2.30;;;1.10;;
52610;SDS011;38727;40.130;18.292;2024-02-26T09:20:09;4.70;;;1.50;;
52610;SDS011;38727;40.130;18.292;2024-02-26T09:22:41;3.22;;;1.30;;
52610;SDS011;38727;40.130;18.292;2024-02-26T09:25:12;5.30;;;2.08;;
52610;SDS011;38727;40.130;18.292;2024-02-26T09:27:45;6.72;;;1.40;;
52610;SDS011;38727;40.130;18.292;2024-02-26T09:30:16;8.45;;;1.48;;
52610;SDS011;38727;40.130;18.292;2024-02-26T09:32:51;6.82;;;1.60;;
52610;SDS011;38727;40.130;18.292;2024-02-26T09:35:22;5.07;;;1.20;;
52610;SDS011;38727;40.130;18.292;2024-02-26T09:37:53;4.47;;;1.30;;
52610;SDS011;38727;40.130;18.292;2024-02-26T09:40:24;4.28;;;1.63;;
52610;SDS011;38727;40.130;18.292;2024-02-26T09:42:59;2.92;;;1.02;;
52610;SDS011;38727;40.130;18.292;2024-02-26T09:45:30;6.43;;;1.40;;
52610;SDS011;38727;40.130;18.292;2024-02-26T09:48:03;7.43;;;1.35;;
52610;SDS011;38727;40.130;18.292;2024-02-26T09:50:39;5.00;;;1.98;;
52610;SDS011;38727;40.130;18.292;2024-02-26T09:53:11;4.68;;;1.58;;
52610;SDS011;38727;40.130;18.292;2024-02-26T09:55:45;4.72;;;1.40;;
52610;SDS011;38727;40.130;18.292;2024-02-26T09:58:32;6.35;;;1.17;;
52610;SDS011;38727;40.130;18.292;2024-02-26T10:01:03;5.80;;;1.30;;
52610;SDS011;38727;40.130;18.292;2024-02-26T10:03:44;4.15;;;1.63;;
52610;SDS011;38727;40.130;18.292;2024-02-26T10:06:30;2.97;;;1.35;;
52610;SDS011;38727;40.130;18.292;2024-02-26T10:09:00;5.35;;;1.52;;
52610;SDS011;38727;40.130;18.292;2024-02-26T10:11:34;6.03;;;1.38;;
52610;SDS011;38727;40.130;18.292;2024-02-26T10:14:07;3.47;;;1.15;;
52610;SDS011;38727;40.130;18.292;2024-02-26T10:16:38;6.53;;;1.48;;
52610;SDS011;38727;40.130;18.292;2024-02-26T10:19:10;4.18;;;1.08;;
52610;SDS011;38727;40.130;18.292;2024-02-26T10:22:01;3.60;;;1.50;;
52610;SDS011;38727;40.130;18.292;2024-02-26T10:24:35;4.57;;;1.45;;
52610;SDS011;38727;40.130;18.292;2024-02-26T10:27:07;2.92;;;1.25;;
52610;SDS011;38727;40.130;18.292;2024-02-26T10:29:40;3.92;;;1.27;;
52610;SDS011;38727;40.130;18.292;2024-02-26T10:32:14;5.25;;;1.27;;
52610;SDS011;38727;40.130;18.292;2024-02-26T10:34:47;3.40;;;1.20;;
52610;SDS011;38727;40.130;18.292;2024-02-26T10:37:20;6.72;;;2.15;;
52610;SDS011;38727;40.130;18.292;2024-02-26T10:39:53;4.23;;;1.47;;
52610;SDS011;38727;40.130;18.292;2024-02-26T10:42:32;4.05;;;1.73;;
52610;SDS011;38727;40.130;18.292;2024-02-26T10:45:08;4.20;;;1.10;;
52610;SDS011;38727;40.130;18.292;2024-02-26T10:47:40;7.65;;;1.50;;
52610;SDS011;38727;40.130;18.292;2024-02-26T10:50:12;4.60;;;1.70;;
52610;SDS011;38727;40.130;18.292;2024-02-26T10:53:12;5.93;;;1.63;;
52610;SDS011;38727;40.130;18.292;2024-02-26T10:55:48;2.83;;;0.80;;
52610;SDS011;38727;40.130;18.292;2024-02-26T10:58:23;5.65;;;1.35;;
52610;SDS011;38727;40.130;18.292;2024-02-26T11:01:16;4.93;;;1.13;;
52610;SDS011;38727;40.130;18.292;2024-02-26T11:03:49;4.18;;;1.23;;
52610;SDS011;38727;40.130;18.292;2024-02-26T11:06:21;4.47;;;1.17;;
52610;SDS011;38727;40.130;18.292;2024-02-26T11:09:01;3.97;;;1.33;;
52610;SDS011;38727;40.130;18.292;2024-02-26T11:11:32;3.88;;;1.33;;
52610;SDS011;38727;40.130;18.292;2024-02-26T11:14:05;2.55;;;1.17;;
52610;SDS011;38727;40.130;18.292;2024-02-26T11:16:37;6.10;;;1.25;;
52610;SDS011;38727;40.130;18.292;2024-02-26T11:19:08;4.35;;;1.20;;
52610;SDS011;38727;40.130;18.292;2024-02-26T11:21:50;4.85;;;1.10;;
52610;SDS011;38727;40.130;18.292;2024-02-26T11:24:21;4.25;;;1.48;;
52610;SDS011;38727;40.130;18.292;2024-02-26T11:26:53;6.65;;;1.60;;
52610;SDS011;38727;40.130;18.292;2024-02-26T11:29:32;4.03;;;1.35;;
52610;SDS011;38727;40.130;18.292;2024-02-26T11:32:08;4.40;;;1.40;;
52610;SDS011;38727;40.130;18.292;2024-02-26T11:34:44;3.53;;;1.33;;
52610;SDS011;38727;40.130;18.292;2024-02-26T11:37:15;9.32;;;2.90;;
52610;SDS011;38727;40.130;18.292;2024-02-26T11:39:46;7.43;;;1.45;;
52610;SDS011;38727;40.130;18.292;2024-02-26T11:42:23;5.85;;;1.25;;
52610;SDS011;38727;40.130;18.292;2024-02-26T11:44:55;3.47;;;1.42;;
52610;SDS011;38727;40.130;18.292;2024-02-26T11:47:32;9.77;;;2.05;;
52610;SDS011;38727;40.130;18.292;2024-02-26T11:53:20;4.88;;;1.90;;
52610;SDS011;38727;40.130;18.292;2024-02-26T11:59:04;3.05;;;1.17;;
52610;SDS011;38727;40.130;18.292;2024-02-26T12:01:59;3.75;;;1.20;;
52610;SDS011;38727;40.130;18.292;2024-02-26T12:07:08;4.30;;;1.25;;
52610;SDS011;38727;40.130;18.292;2024-02-26T12:09:43;7.78;;;1.33;;
52610;SDS011;38727;40.130;18.292;2024-02-26T12:12:18;6.72;;;1.70;;
52610;SDS011;38727;40.130;18.292;2024-02-26T12:15:10;2.83;;;1.02;;
52610;SDS011;38727;40.130;18.292;2024-02-26T12:18:08;1.60;;;0.80;;
52610;SDS011;38727;40.130;18.292;2024-02-26T12:22:01;7.25;;;1.88;;
52610;SDS011;38727;40.130;18.292;2024-02-26T12:25:02;3.43;;;1.00;;
52610;SDS011;38727;40.130;18.292;2024-02-26T12:27:43;5.70;;;1.38;;
52610;SDS011;38727;40.130;18.292;2024-02-26T12:30:39;3.50;;;1.65;;
52610;SDS011;38727;40.130;18.292;2024-02-26T12:33:41;2.33;;;0.95;;
52610;SDS011;38727;40.130;18.292;2024-02-26T12:36:24;3.28;;;1.05;;
52610;SDS011;38727;40.130;18.292;2024-02-26T12:39:48;3.05;;;1.10;;
52610;SDS011;38727;40.130;18.292;2024-02-26T12:42:40;2.42;;;1.10;;
52610;SDS011;38727;40.130;18.292;2024-02-26T12:45:44;3.53;;;1.00;;
52610;SDS011;38727;40.130;18.292;2024-02-26T12:51:59;3.95;;;1.30;;
52610;SDS011;38727;40.130;18.292;2024-02-26T12:54:42;7.47;;;1.17;;
52610;SDS011;38727;40.130;18.292;2024-02-26T13:01:23;3.53;;;1.13;;
52610;SDS011;38727;40.130;18.292;2024-02-26T13:08:41;4.97;;;1.00;;
52610;SDS011;38727;40.130;18.292;2024-02-26T13:11:42;5.45;;;1.20;;
52610;SDS011;38727;40.130;18.292;2024-02-26T13:14:21;4.57;;;1.00;;
52610;SDS011;38727;40.130;18.292;2024-02-26T13:17:02;4.35;;;1.23;;
52610;SDS011;38727;40.130;18.292;2024-02-26T13:19:35;2.17;;;1.08;;
52610;SDS011;38727;40.130;18.292;2024-02-26T13:22:08;2.67;;;1.17;;
52610;SDS011;38727;40.130;18.292;2024-02-26T13:27:57;4.18;;;0.75;;
52610;SDS011;38727;40.130;18.292;2024-02-26T13:30:49;2.63;;;1.10;;
52610;SDS011;38727;40.130;18.292;2024-02-26T13:33:41;2.65;;;1.20;;
52610;SDS011;38727;40.130;18.292;2024-02-26T13:36:31;2.90;;;0.93;;
52610;SDS011;38727;40.130;18.292;2024-02-26T13:39:28;2.00;;;1.35;;
52610;SDS011;38727;40.130;18.292;2024-02-26T13:42:29;3.80;;;1.00;;
52610;SDS011;38727;40.130;18.292;2024-02-26T13:45:33;3.97;;;1.55;;
52610;SDS011;38727;40.130;18.292;2024-02-26T13:48:20;2.10;;;0.90;;
52610;SDS011;38727;40.130;18.292;2024-02-26T13:51:05;3.33;;;1.23;;
52610;SDS011;38727;40.130;18.292;2024-02-26T13:53:54;1.83;;;1.08;;
52610;SDS011;38727;40.130;18.292;2024-02-26T13:56:43;5.82;;;0.90;;
52610;SDS011;38727;40.130;18.292;2024-02-26T13:59:35;6.30;;;1.73;;
52610;SDS011;38727;40.130;18.292;2024-02-26T14:02:55;1.77;;;0.93;;
52610;SDS011;38727;40.130;18.292;2024-02-26T14:05:26;2.25;;;1.02;;
52610;SDS011;38727;40.130;18.292;2024-02-26T14:08:36;2.75;;;1.13;;
52610;SDS011;38727;40.130;18.292;2024-02-26T14:11:36;2.65;;;0.90;;
52610;SDS011;38727;40.130;18.292;2024-02-26T14:14:37;2.90;;;1.05;;
52610;SDS011;38727;40.130;18.292;2024-02-26T14:21:50;5.57;;;1.20;;
52610;SDS011;38727;40.130;18.292;2024-02-26T14:24:36;3.33;;;1.70;;
52610;SDS011;38727;40.130;18.292;2024-02-26T14:27:58;4.32;;;1.20;;
52610;SDS011;38727;40.130;18.292;2024-02-26T14:30:31;2.42;;;1.02;;
52610;SDS011;38727;40.130;18.292;2024-02-26T14:33:36;4.38;;;1.00;;
52610;SDS011;38727;40.130;18.292;2024-02-26T14:36:40;7.70;;;1.13;;
52610;SDS011;38727;40.130;18.292;2024-02-26T14:39:18;2.95;;;0.80;;
52610;SDS011;38727;40.130;18.292;2024-02-26T14:41:58;3.42;;;1.20;;
52610;SDS011;38727;40.130;18.292;2024-02-26T14:44:45;2.65;;;1.10;;
52610;SDS011;38727;40.130;18.292;2024-02-26T14:47:51;4.25;;;1.20;;
52610;SDS011;38727;40.130;18.292;2024-02-26T14:51:05;4.35;;;1.17;;
52610;SDS011;38727;40.130;18.292;2024-02-26T14:53:46;3.08;;;1.00;;
52610;SDS011;38727;40.130;18.292;2024-02-26T15:00:23;4.03;;;1.25;;
52610;SDS011;38727;40.130;18.292;2024-02-26T15:03:02;5.53;;;1.00;;
52610;SDS011;38727;40.130;18.292;2024-02-26T15:09:15;2.92;;;1.35;;
52610;SDS011;38727;40.130;18.292;2024-02-26T15:12:07;2.45;;;1.30;;
52610;SDS011;38727;40.130;18.292;2024-02-26T15:15:05;4.57;;;1.63;;
52610;SDS011;38727;40.130;18.292;2024-02-26T15:18:08;2.47;;;1.15;;
52610;SDS011;38727;40.130;18.292;2024-02-26T15:28:38;1.40;;;0.85;;
52610;SDS011;38727;40.130;18.292;2024-02-26T15:31:48;2.90;;;1.05;;
52610;SDS011;38727;40.130;18.292;2024-02-26T15:34:46;2.75;;;1.10;;
52610;SDS011;38727;40.130;18.292;2024-02-26T15:37:36;3.67;;;1.27;;
52610;SDS011;38727;40.130;18.292;2024-02-26T15:47:08;2.50;;;1.38;;
52610;SDS011;38727;40.130;18.292;2024-02-26T15:50:00;3.03;;;1.10;;
52610;SDS011;38727;40.130;18.292;2024-02-26T15:52:35;2.40;;;1.17;;
52610;SDS011;38727;40.130;18.292;2024-02-26T15:55:54;2.83;;;1.10;;
52610;SDS011;38727;40.130;18.292;2024-02-26T15:58:37;5.25;;;0.98;;
52610;SDS011;38727;40.130;18.292;2024-02-26T16:01:08;2.35;;;1.15;;
52610;SDS011;38727;40.130;18.292;2024-02-26T16:03:38;4.18;;;1.38;;
52610;SDS011;38727;40.130;18.292;2024-02-26T16:08:58;4.22;;;1.30;;
52610;SDS011;38727;40.130;18.292;2024-02-26T16:11:30;3.92;;;1.42;;
52610;SDS011;38727;40.130;18.292;2024-02-26T16:14:02;5.10;;;1.58;;
52610;SDS011;38727;40.130;18.292;2024-02-26T16:16:42;3.80;;;1.83;;
52610;SDS011;38727;40.130;18.292;2024-02-26T16:19:20;3.58;;;1.50;;
52610;SDS011;38727;40.130;18.292;2024-02-26T16:21:53;4.25;;;2.38;;
52610;SDS011;38727;40.130;18.292;2024-02-26T16:24:23;5.47;;;2.03;;
52610;SDS011;38727;40.130;18.292;2024-02-26T16:26:56;4.30;;;2.65;;
52610;SDS011;38727;40.130;18.292;2024-02-26T16:29:27;5.18;;;2.30;;
52610;SDS011;38727;40.130;18.292;2024-02-26T16:31:58;5.60;;;2.47;;